Time;durP1;ratioP1;P1;durP2;ratioP2;P2;SDS_P1;SDS_P2;PMS_P1;PMS_P2;Temp;Humidity;BMP_temperature;BMP_pressure;BME280_temperature;BME280_humidity;BME280_pressure;Samples;Min_cycle;Max_cycle;Signal;HPM_P1;HPM_P2
2022/04/05 00:00:27;;;;;;;;;11.50;10.75;;;;;9.91;61.43;100771.66;4969605;28;45465;-56
2022/04/05 00:02:52;;;;;;;;;11.00;11.00;;;;;9.90;62.71;100780.56;4973869;28;45344;-56
2022/04/05 00:05:18;;;;;;;;;20.00;15.75;;;;;9.90;62.55;100776.09;4963582;28;45267;-57
2022/04/05 00:07:43;;;;;;;;;11.00;11.00;;;;;9.91;62.89;100780.47;4961014;28;45681;-57
2022/04/05 00:10:18;;;;;;;;;11.00;11.00;;;;;9.91;61.46;100774.31;4972687;28;45386;-53
2022/04/05 00:12:44;;;;;;;;;11.00;9.75;;;;;9.86;62.36;100771.84;4970312;28;45255;-61
2022/04/05 00:15:09;;;;;;;;;11.25;10.75;;;;;9.74;62.45;100757.41;4953269;28;45327;-57
2022/04/05 00:17:36;;;;;;;;;13.00;13.00;;;;;9.82;62.49;100758.81;4969819;28;45269;-57
2022/04/05 00:20:02;;;;;;;;;14.75;13.75;;;;;9.83;63.35;100769.38;4960895;28;45517;-55
2022/04/05 00:22:28;;;;;;;;;11.75;8.25;;;;;9.84;63.10;100760.47;4964447;28;45444;-56
2022/04/05 00:24:53;;;;;;;;;10.50;10.50;;;;;9.87;62.36;100773.56;4963728;28;45719;-53
2022/04/05 00:27:19;;;;;;;;;11.75;9.50;;;;;9.89;62.92;100784.13;4974039;28;48438;-55
2022/04/05 00:29:44;;;;;;;;;4.50;2.25;;;;;9.87;63.66;100776.22;4962145;28;45433;-52
2022/04/05 00:32:10;;;;;;;;;10.50;10.00;;;;;9.82;62.01;100764.13;4975192;28;45441;-52
2022/04/05 00:34:35;;;;;;;;;10.50;10.50;;;;;9.70;63.13;100758.50;4964947;28;45463;-54
2022/04/05 00:37:01;;;;;;;;;12.00;12.00;;;;;9.82;63.32;100772.09;4959124;28;45427;-53
2022/04/05 00:39:29;;;;;;;;;13.50;10.75;;;;;9.66;63.08;100740.13;4968191;28;45480;-50
2022/04/05 00:41:55;;;;;;;;;12.75;11.25;;;;;9.72;63.67;100750.44;5042625;28;45461;-56
2022/04/05 00:44:20;;;;;;;;;14.75;11.00;;;;;9.81;64.08;100771.25;4964731;28;45398;-55
2022/04/05 00:46:47;;;;;;;;;10.75;7.50;;;;;9.73;63.59;100753.03;4957501;28;45453;-55
2022/04/05 00:49:27;;;;;;;;;14.00;12.00;;;;;9.78;64.65;100763.44;4973054;28;45406;-55
2022/04/05 00:51:52;;;;;;;;;15.75;14.25;;;;;9.78;64.59;100765.22;4960750;28;45335;-56
2022/04/05 00:54:20;;;;;;;;;8.75;7.25;;;;;9.59;65.25;100728.94;4957182;28;45551;-54
2022/04/05 00:56:46;;;;;;;;;11.25;10.50;;;;;9.73;64.42;100747.72;5003113;28;45541;-59
2022/04/05 00:59:15;;;;;;;;;11.25;11.25;;;;;9.80;65.42;100764.22;4974766;28;45547;-54
2022/04/05 01:01:41;;;;;;;;;10.00;10.00;;;;;9.82;65.30;100762.34;4974816;28;45414;-55
2022/04/05 01:04:07;;;;;;;;;10.75;10.75;;;;;9.73;65.73;100747.72;4975822;28;45620;-53
2022/04/05 01:06:39;;;;;;;;;15.25;11.25;;;;;9.73;65.47;100747.72;4967950;28;45292;-60
2022/04/05 01:09:07;;;;;;;;;12.00;10.75;;;;;9.75;66.00;100760.91;4966761;28;45404;-55
2022/04/05 01:11:33;;;;;;;;;16.75;13.00;;;;;9.72;66.54;100753.09;4966535;28;45301;-52
2022/04/05 01:13:59;;;;;;;;;12.75;10.25;;;;;9.77;67.11;100753.75;4964226;28;45231;-55
2022/04/05 01:16:24;;;;;;;;;8.50;8.50;;;;;9.74;66.47;100749.44;4969172;27;46092;-52
2022/04/05 01:18:50;;;;;;;;;12.75;10.75;;;;;9.70;66.62;100741.69;4957997;28;45219;-56
2022/04/05 01:21:16;;;;;;;;;12.50;11.50;;;;;9.78;66.72;100755.47;4962865;28;45505;-56
2022/04/05 01:24:06;;;;;;;;;15.50;13.75;;;;;9.78;66.06;100743.97;4946035;28;45248;-56
2022/04/05 01:26:44;;;;;;;;;13.50;13.50;;;;;9.74;66.86;100743.25;4955070;28;46229;-56
2022/04/05 01:29:11;;;;;;;;;12.25;11.75;;;;;9.67;66.66;100736.56;4965593;28;45256;-57
2022/04/05 01:31:43;;;;;;;;;12.25;11.00;;;;;9.66;67.81;100729.53;4967194;28;45185;-52
2022/04/05 01:34:09;;;;;;;;;15.00;11.75;;;;;9.70;67.23;100731.06;4965314;28;45343;-56
2022/04/05 01:36:50;;;;;;;;;14.75;10.75;;;;;9.74;66.73;100743.25;4990836;28;47596;-57
2022/04/05 01:39:16;;;;;;;;;11.25;11.25;;;;;9.77;67.97;100737.81;4975557;28;45333;-56
2022/04/05 01:41:42;;;;;;;;;11.75;10.00;;;;;9.77;67.15;100735.16;4973538;28;45341;-50
2022/04/05 01:44:11;;;;;;;;;14.75;13.00;;;;;9.74;66.38;100724.66;4975443;28;45591;-57
2022/04/05 01:46:36;;;;;;;;;17.25;11.50;;;;;9.56;67.43;100699.03;4958259;28;45375;-55
2022/04/05 01:49:08;;;;;;;;;11.75;11.50;;;;;9.52;67.64;100682.41;4972269;28;45339;-55
2022/04/05 01:51:35;;;;;;;;;11.00;10.25;;;;;9.80;67.60;100729.69;4956118;28;45319;-54
2022/04/05 01:54:05;;;;;;;;;13.00;12.00;;;;;9.80;67.65;100729.69;4956271;28;45361;-56
2022/04/05 01:56:31;;;;;;;;;15.00;11.00;;;;;9.73;67.54;100723.81;5050331;28;45472;-54
2022/04/05 01:58:57;;;;;;;;;11.00;11.00;;;;;9.75;67.78;100724.59;5068828;27;45509;-53
2022/04/05 02:01:22;;;;;;;;;10.50;10.25;;;;;9.73;68.27;100722.94;4958770;28;45399;-53
2022/04/05 02:03:48;;;;;;;;;14.50;11.50;;;;;9.69;68.81;100714.28;4975949;27;45222;-53
2022/04/05 02:06:13;;;;;;;;;11.00;11.00;;;;;9.73;69.20;100728.25;4959820;28;45504;-51
2022/04/05 02:08:39;;;;;;;;;11.00;8.75;;;;;9.73;69.10;100726.47;4957045;28;45248;-52
2022/04/05 02:11:04;;;;;;;;;10.75;10.75;;;;;9.73;68.91;100729.13;4971182;28;45444;-55
2022/04/05 02:13:29;;;;;;;;;12.00;12.00;;;;;9.68;69.15;100719.69;4978057;28;45394;-57
2022/04/05 02:15:55;;;;;;;;;14.50;13.25;;;;;9.72;69.63;100718.56;4978061;28;47356;-54
2022/04/05 02:18:20;;;;;;;;;14.50;12.25;;;;;9.74;68.79;100722.00;4966086;28;45441;-58
2022/04/05 02:20:49;;;;;;;;;11.50;11.50;;;;;9.77;69.51;100727.19;4974950;28;45561;-58
2022/04/05 02:23:14;;;;;;;;;11.50;11.50;;;;;9.68;68.27;100723.19;4975214;28;45469;-57
2022/04/05 02:25:40;;;;;;;;;14.00;14.00;;;;;9.67;69.38;100717.97;4957074;28;45584;-50
2022/04/05 02:28:06;;;;;;;;;15.50;14.25;;;;;9.69;69.01;100719.59;4963966;28;45556;-56
2022/04/05 02:30:34;;;;;;;;;10.50;10.50;;;;;9.75;69.94;100729.03;4970441;28;45763;-52
2022/04/05 02:32:59;;;;;;;;;14.00;10.50;;;;;9.71;69.21;100716.84;4971984;28;45276;-55
2022/04/05 02:35:25;;;;;;;;;11.00;11.00;;;;;9.68;70.13;100711.72;4971869;28;45343;-55
2022/04/05 02:37:50;;;;;;;;;14.00;11.67;;;;;9.72;70.10;100718.56;4956864;28;45370;-53
2022/04/05 02:40:16;;;;;;;;;12.00;12.00;;;;;9.72;70.24;100719.44;4955402;28;45432;-52
2022/04/05 02:42:41;;;;;;;;;13.00;11.25;;;;;9.62;69.97;100699.59;4970363;28;45556;-53
2022/04/05 02:45:08;;;;;;;;;12.00;11.00;;;;;9.63;70.70;100701.28;4958630;28;46098;-54
2022/04/05 02:47:33;;;;;;;;;13.25;11.25;;;;;9.69;71.06;100708.97;4955129;28;45300;-51
2022/04/05 02:49:59;;;;;;;;;11.00;8.25;;;;;9.68;70.37;100701.09;4968372;28;45448;-52
2022/04/05 02:52:24;;;;;;;;;14.25;10.75;;;;;9.71;70.04;100709.75;4975351;28;45393;-51
2022/04/05 02:54:50;;;;;;;;;13.25;11.00;;;;;9.62;70.35;100690.75;4965190;28;45369;-56
2022/04/05 02:57:18;;;;;;;;;12.50;12.50;;;;;9.76;70.45;100701.53;5077504;27;45475;-51
2022/04/05 02:59:44;;;;;;;;;11.25;11.25;;;;;9.69;71.02;100686.88;5013610;28;45525;-56
2022/04/05 03:02:09;;;;;;;;;15.25;12.75;;;;;9.81;71.00;100707.50;4968601;28;45410;-54
2022/04/05 03:04:36;;;;;;;;;13.50;11.75;;;;;9.43;70.82;100643.06;4968947;28;45335;-57
2022/04/05 03:07:02;;;;;;;;;10.00;10.00;;;;;9.85;71.43;100701.06;4954968;28;45339;-54
2022/04/05 03:09:28;;;;;;;;;10.00;10.00;;;;;9.80;71.99;100708.44;4956211;28;45528;-52
2022/04/05 03:11:55;;;;;;;;;18.25;13.00;;;;;9.77;71.84;100703.28;4958691;28;45566;-55
2022/04/05 03:14:21;;;;;;;;;11.50;11.50;;;;;9.77;72.26;100700.63;4955593;28;46318;-53
2022/04/05 03:16:47;;;;;;;;;10.50;9.75;;;;;9.75;71.69;100699.81;4955072;28;45441;-51
2022/04/05 03:19:12;;;;;;;;;13.00;11.25;;;;;9.74;71.80;100700.75;4967238;28;46036;-53
2022/04/05 03:21:38;;;;;;;;;14.00;11.75;;;;;9.68;71.25;100693.13;4974861;28;45414;-52
2022/04/05 03:24:04;;;;;;;;;15.25;13.00;;;;;9.73;72.71;100699.03;4963846;28;46039;-54
2022/04/05 03:26:29;;;;;;;;;16.00;11.50;;;;;9.72;72.17;100692.03;4955480;28;45770;-51
2022/04/05 03:28:57;;;;;;;;;11.25;11.25;;;;;9.76;72.72;100696.22;4970644;28;45319;-57
2022/04/05 03:31:22;;;;;;;;;13.00;11.50;;;;;9.77;71.76;100695.31;4968104;28;45402;-57
2022/04/05 03:33:48;;;;;;;;;11.00;11.00;;;;;9.73;73.13;100691.06;4954842;28;46217;-55
2022/04/05 03:36:14;;;;;;;;;12.00;12.00;;;;;9.73;72.82;100689.28;4966684;28;45559;-56
2022/04/05 03:38:39;;;;;;;;;11.25;11.00;;;;;9.75;72.85;100689.19;4970394;28;45312;-54
2022/04/05 03:41:05;;;;;;;;;13.75;8.75;;;;;9.70;72.00;100684.13;4956446;28;45417;-58
2022/04/05 03:43:31;;;;;;;;;11.25;10.00;;;;;9.72;72.80;100687.56;4963129;28;47168;-53
2022/04/05 03:45:56;;;;;;;;;11.00;11.00;;;;;9.70;73.30;100686.78;4972812;28;45425;-58
2022/04/05 03:48:22;;;;;;;;;11.00;11.00;;;;;9.66;72.87;100687.91;4974248;28;45467;-52
2022/04/05 03:50:47;;;;;;;;;11.75;11.75;;;;;9.66;71.67;100679.94;4957666;28;45556;-55
2022/04/05 03:53:13;;;;;;;;;10.25;10.25;;;;;9.60;72.54;100666.94;4954085;28;46241;-56
2022/04/05 03:55:38;;;;;;;;;8.50;8.50;;;;;9.45;72.82;100644.69;5004154;28;45457;-56
2022/04/05 03:58:04;;;;;;;;;10.50;8.50;;;;;9.62;73.32;100675.69;5005375;27;45263;-57
2022/04/05 04:00:30;;;;;;;;;13.25;11.00;;;;;9.48;72.72;100656.09;4997800;28;45398;-57
2022/04/05 04:02:55;;;;;;;;;14.50;13.25;;;;;9.59;73.30;100682.94;4945509;28;46946;-55
2022/04/05 04:05:21;;;;;;;;;11.75;11.50;;;;;9.59;74.45;100678.50;4983684;28;45510;-55
2022/04/05 04:07:49;;;;;;;;;11.00;7.50;;;;;9.52;73.55;100668.28;4952982;28;45843;-55
2022/04/05 04:10:16;;;;;;;;;9.75;7.50;;;;;9.55;74.64;100686.72;4954658;28;45383;-57
2022/04/05 04:12:41;;;;;;;;;12.25;11.75;;;;;9.54;74.52;100682.34;4971572;28;46243;-55
2022/04/05 04:15:08;;;;;;;;;11.75;10.25;;;;;9.53;75.50;100685.94;4973492;28;45360;-52
2022/04/05 04:17:33;;;;;;;;;13.00;11.25;;;;;9.45;75.94;100676.53;4955295;28;45239;-53
2022/04/05 04:19:59;;;;;;;;;8.75;8.00;;;;;9.52;74.42;100684.22;4953250;28;45527;-54
2022/04/05 04:22:26;;;;;;;;;11.00;9.75;;;;;9.52;75.27;100678.91;4956243;28;45294;-51
2022/04/05 04:24:52;;;;;;;;;11.50;10.50;;;;;9.45;75.92;100668.56;4971646;28;45347;-57
2022/04/05 04:27:18;;;;;;;;;11.00;11.00;;;;;9.48;74.00;100669.34;4972771;28;45840;-54
2022/04/05 04:29:43;;;;;;;;;15.75;12.25;;;;;9.45;74.92;100679.19;4967340;28;45380;-54
2022/04/05 04:32:09;;;;;;;;;11.25;10.25;;;;;9.33;75.28;100658.56;4968755;28;46121;-62
2022/04/05 04:34:34;;;;;;;;;11.25;11.25;;;;;9.35;76.46;100662.00;4971462;28;45417;-50
2022/04/05 04:37:01;;;;;;;;;12.00;12.00;;;;;9.38;76.19;100667.19;4972125;28;45543;-53
2022/04/05 04:39:27;;;;;;;;;11.25;10.25;;;;;9.41;75.32;100677.63;4968815;28;45409;-50
2022/04/05 04:41:56;;;;;;;;;13.00;11.50;;;;;9.42;74.62;100668.75;4970016;28;45310;-55
2022/04/05 04:44:22;;;;;;;;;14.50;10.00;;;;;9.45;75.65;100662.41;4970493;28;45299;-56
2022/04/05 04:46:47;;;;;;;;;14.00;14.00;;;;;9.49;75.97;100671.94;4954176;28;45193;-53
2022/04/05 04:49:13;;;;;;;;;11.50;11.00;;;;;9.47;75.16;100663.19;4952656;28;45518;-52
2022/04/05 04:51:38;;;;;;;;;14.75;13.00;;;;;9.35;75.69;100643.44;4953351;28;45409;-55
2022/04/05 04:54:03;;;;;;;;;11.25;10.25;;;;;9.56;75.00;100675.16;4956024;28;45334;-55
2022/04/05 04:56:29;;;;;;;;;15.75;12.50;;;;;9.57;75.89;100674.22;5030880;27;45383;-52
2022/04/05 04:58:54;;;;;;;;;17.25;14.00;;;;;9.54;76.21;100663.75;4954325;28;45434;-59
2022/04/05 05:01:20;;;;;;;;;14.50;12.00;;;;;9.60;75.26;100656.31;4974587;28;46288;-58
2022/04/05 05:03:45;;;;;;;;;14.25;12.00;;;;;9.60;75.94;100671.41;4972314;27;45412;-55
2022/04/05 05:06:11;;;;;;;;;16.00;10.75;;;;;9.62;75.91;100659.75;4976775;28;45444;-55
2022/04/05 05:08:36;;;;;;;;;15.75;14.00;;;;;9.65;75.88;100658.75;4966228;28;45426;-56
2022/04/05 05:11:02;;;;;;;;;11.50;11.50;;;;;9.62;76.49;100659.75;4977526;28;45440;-55
2022/04/05 05:13:28;;;;;;;;;17.75;12.75;;;;;9.64;77.37;100665.00;4972037;28;45442;-53
2022/04/05 05:15:54;;;;;;;;;12.50;11.00;;;;;9.70;76.45;100670.00;4980856;28;45520;-53
2022/04/05 05:18:20;;;;;;;;;11.75;11.00;;;;;9.66;76.49;100652.50;4976497;28;45546;-53
2022/04/05 05:20:48;;;;;;;;;11.50;10.75;;;;;9.69;76.18;100658.50;4974503;28;46866;-56
2022/04/05 05:23:13;;;;;;;;;15.00;15.00;;;;;9.70;76.38;100670.00;4992516;27;45430;-55
2022/04/05 05:25:39;;;;;;;;;15.50;13.50;;;;;9.74;76.24;100668.91;4973707;28;45347;-53
2022/04/05 05:28:04;;;;;;;;;19.00;14.25;;;;;9.75;76.55;100670.59;4975279;28;45482;-57
2022/04/05 05:30:30;;;;;;;;;9.75;9.25;;;;;9.69;76.17;100647.03;4975914;28;45451;-52
2022/04/05 05:32:55;;;;;;;;;17.00;13.75;;;;;9.75;75.49;100655.53;4975475;28;45412;-54
2022/04/05 05:35:22;;;;;;;;;12.75;10.75;;;;;9.72;76.34;100654.84;4975685;28;45389;-57
2022/04/05 05:37:48;;;;;;;;;20.00;15.50;;;;;9.84;75.35;100663.97;4996380;27;45543;-55
2022/04/05 05:40:15;;;;;;;;;11.00;10.50;;;;;9.82;76.74;100650.78;4975134;28;45650;-56
2022/04/05 05:42:50;;;;;;;;;14.00;13.75;;;;;9.85;76.59;100658.56;4974181;28;45403;-54
2022/04/05 05:45:17;;;;;;;;;14.75;14.00;;;;;9.87;75.75;100658.50;5040179;27;45291;-55
2022/04/05 05:47:42;;;;;;;;;15.50;15.50;;;;;9.89;75.81;100662.78;5094435;27;45299;-56
2022/04/05 05:50:10;;;;;;;;;13.25;11.00;;;;;9.90;75.48;100659.22;5078177;28;46568;-55
2022/04/05 05:52:36;;;;;;;;;17.00;15.00;;;;;9.92;76.67;100657.34;5078746;27;45440;-55
2022/04/05 05:55:01;;;;;;;;;10.75;9.00;;;;;9.99;76.98;100663.16;5066446;28;45457;-54
2022/04/05 05:57:26;;;;;;;;;19.00;15.25;;;;;9.97;76.27;100660.59;4976078;28;45626;-54
2022/04/05 05:59:52;;;;;;;;;14.75;11.50;;;;;9.99;76.10;100669.34;4975387;27;46030;-53
2022/04/05 06:02:17;;;;;;;;;16.75;13.00;;;;;10.02;75.98;100671.81;4989082;27;45458;-55
2022/04/05 06:04:43;;;;;;;;;13.50;12.75;;;;;10.05;75.77;100684.97;4975636;28;45591;-53
2022/04/05 06:07:09;;;;;;;;;16.25;12.25;;;;;10.07;76.25;100676.06;4974299;28;45421;-54
2022/04/05 06:09:45;;;;;;;;;17.25;12.25;;;;;10.00;75.94;100671.06;4975794;28;45516;-56
2022/04/05 06:12:11;;;;;;;;;16.00;12.50;;;;;10.09;75.95;100679.50;4990651;28;45437;-56
2022/04/05 06:14:36;;;;;;;;;16.00;15.00;;;;;10.13;75.64;100681.91;4975445;28;45295;-55
2022/04/05 06:17:01;;;;;;;;;12.50;12.50;;;;;10.13;76.55;100681.91;4975511;28;45509;-54
2022/04/05 06:19:27;;;;;;;;;15.50;12.50;;;;;10.18;75.34;100684.34;4974694;28;46269;-53
2022/04/05 06:21:52;;;;;;;;;11.50;11.50;;;;;10.17;75.29;100682.63;4979092;28;45168;-52
2022/04/05 06:24:19;;;;;;;;;12.25;12.25;;;;;10.21;76.21;100689.47;4971242;28;45617;-54
2022/04/05 06:26:45;;;;;;;;;14.00;14.00;;;;;10.21;75.28;100695.69;4974296;28;45630;-57
2022/04/05 06:29:10;;;;;;;;;16.50;14.75;;;;;10.28;75.10;100698.88;4973800;28;45524;-53
2022/04/05 06:31:36;;;;;;;;;11.50;10.25;;;;;10.23;76.63;100699.13;4975131;28;45387;-54
2022/04/05 06:34:02;;;;;;;;;15.00;12.00;;;;;10.10;76.57;100679.41;4973071;28;45472;-55
2022/04/05 06:36:31;;;;;;;;;15.00;11.00;;;;;10.10;76.85;100676.75;4975364;28;45548;-54
2022/04/05 06:38:57;;;;;;;;;8.75;7.50;;;;;10.22;76.25;100688.56;4971962;27;46781;-55
2022/04/05 06:41:22;;;;;;;;;16.25;12.75;;;;;10.32;76.47;100713.72;4974653;28;45391;-55
2022/04/05 06:43:48;;;;;;;;;7.00;7.00;;;;;10.32;76.30;100709.28;4974840;28;45570;-53
2022/04/05 06:46:17;;;;;;;;;19.75;15.75;;;;;10.30;76.72;100699.66;4974810;27;45465;-54
2022/04/05 06:48:42;;;;;;;;;13.50;13.25;;;;;10.25;76.87;100691.06;4973722;28;45480;-52
2022/04/05 06:51:07;;;;;;;;;12.00;12.00;;;;;10.29;76.71;100697.94;4973640;28;45516;-55
2022/04/05 06:53:33;;;;;;;;;17.00;12.25;;;;;10.35;76.83;100697.59;4976172;27;45447;-57
2022/04/05 06:55:59;;;;;;;;;12.00;10.75;;;;;10.35;77.03;100702.94;5028257;27;45574;-55
2022/04/05 06:58:25;;;;;;;;;20.75;16.00;;;;;10.35;76.98;100708.25;5077573;28;46993;-57
2022/04/05 07:00:50;;;;;;;;;15.75;13.25;;;;;10.41;76.34;100712.34;5079468;27;45935;-55
2022/04/05 07:03:16;;;;;;;;;13.50;13.50;;;;;10.40;77.28;100708.84;5079989;27;45473;-57
2022/04/05 07:05:41;;;;;;;;;16.00;16.00;;;;;10.42;77.36;100703.47;5079819;27;45535;-52
2022/04/05 07:08:10;;;;;;;;;16.25;14.75;;;;;10.38;76.37;100696.59;5094732;27;45267;-55
2022/04/05 07:10:36;;;;;;;;;20.00;14.00;;;;;10.36;77.22;100680.72;5078153;27;45337;-54
2022/04/05 07:13:01;;;;;;;;;13.00;11.75;;;;;10.42;77.88;100699.00;5077829;27;45301;-53
2022/04/05 07:15:27;;;;;;;;;11.25;11.25;;;;;10.48;77.06;100688.03;5076770;27;45512;-52
2022/04/05 07:17:52;;;;;;;;;10.75;10.75;;;;;10.48;76.61;100693.34;5076704;28;45388;-57
2022/04/05 07:20:19;;;;;;;;;8.50;8.00;;;;;10.39;77.11;100683.19;5078045;27;45341;-55
2022/04/05 07:22:47;;;;;;;;;17.75;13.75;;;;;10.44;77.46;100691.81;5077402;27;45227;-55
2022/04/05 07:25:13;;;;;;;;;13.50;12.50;;;;;10.52;77.36;100702.00;5092924;27;45307;-54
2022/04/05 07:27:39;;;;;;;;;15.00;11.00;;;;;10.45;77.37;100677.56;5077109;27;45436;-56
2022/04/05 07:30:05;;;;;;;;;14.75;12.25;;;;;10.59;76.12;100696.28;5076929;27;45466;-56
2022/04/05 07:32:43;;;;;;;;;12.25;10.50;;;;;10.63;77.29;100700.50;5075465;28;45421;-54
2022/04/05 07:35:10;;;;;;;;;12.00;12.00;;;;;10.63;76.54;100692.50;5077538;27;45391;-55
2022/04/05 07:37:36;;;;;;;;;13.75;11.50;;;;;10.65;76.96;100697.75;5077001;28;45288;-56
2022/04/05 07:40:05;;;;;;;;;13.00;10.00;;;;;10.63;76.64;100697.84;5077037;27;45253;-54
2022/04/05 07:42:31;;;;;;;;;10.75;10.75;;;;;10.67;76.37;100700.31;5076842;27;45712;-55
2022/04/05 07:44:59;;;;;;;;;12.25;7.75;;;;;10.66;76.18;100696.81;5077040;27;45599;-52
2022/04/05 07:47:25;;;;;;;;;10.50;7.50;;;;;10.72;76.55;100701.81;5076470;27;46123;-54
2022/04/05 07:49:50;;;;;;;;;11.50;9.00;;;;;10.75;76.69;100701.63;5075210;28;45244;-56
2022/04/05 07:52:16;;;;;;;;;11.50;10.25;;;;;10.80;76.76;100706.69;5076643;27;45295;-55
2022/04/05 07:54:42;;;;;;;;;11.25;8.75;;;;;10.84;76.86;100698.47;5076807;27;45224;-56
2022/04/05 07:57:13;;;;;;;;;6.75;6.00;;;;;10.79;77.08;100689.00;4976382;28;45217;-56
2022/04/05 07:59:39;;;;;;;;;16.25;13.25;;;;;10.86;76.20;100703.69;4973998;28;45483;-53
2022/04/05 08:02:05;;;;;;;;;15.50;15.00;;;;;10.89;76.90;100698.19;4974049;28;45293;-53
2022/04/05 08:04:30;;;;;;;;;20.25;20.25;;;;;10.92;76.63;100690.03;4974127;28;45221;-58
2022/04/05 08:06:55;;;;;;;;;19.25;15.75;;;;;11.00;76.51;100703.78;4973499;28;46273;-53
2022/04/05 08:09:21;;;;;;;;;14.00;13.50;;;;;10.93;76.36;100683.78;4987707;28;45385;-55
2022/04/05 08:11:47;;;;;;;;;22.25;20.00;;;;;11.03;76.68;100700.94;4973589;28;45342;-56
2022/04/05 08:14:12;;;;;;;;;18.75;17.50;;;;;11.10;76.77;100707.66;4973010;28;45664;-54
2022/04/05 08:16:38;;;;;;;;;27.50;20.75;;;;;11.15;76.97;100705.56;4973639;28;45973;-55
2022/04/05 08:19:04;;;;;;;;;11.25;11.25;;;;;11.17;76.86;100703.69;4973666;28;45999;-55
2022/04/05 08:21:30;;;;;;;;;9.50;7.75;;;;;11.13;76.10;100696.81;4973558;28;45371;-53
2022/04/05 08:23:56;;;;;;;;;14.25;14.25;;;;;11.19;76.88;100706.25;4973614;28;45472;-53
2022/04/05 08:26:21;;;;;;;;;11.75;9.50;;;;;11.20;76.73;100703.53;4973468;28;45326;-55
2022/04/05 08:28:47;;;;;;;;;13.25;13.25;;;;;11.19;77.16;100700.94;4973589;28;45480;-53
2022/04/05 08:31:13;;;;;;;;;11.00;11.00;;;;;11.20;76.66;100698.22;4972798;28;45445;-59
2022/04/05 08:33:40;;;;;;;;;13.25;12.50;;;;;11.19;77.46;100691.16;4973647;28;45397;-55
2022/04/05 08:36:06;;;;;;;;;12.50;10.25;;;;;11.32;77.19;100706.41;4973617;28;46324;-58
2022/04/05 08:38:31;;;;;;;;;12.00;12.00;;;;;11.34;76.86;100704.56;4973014;28;44784;-57
2022/04/05 08:41:05;;;;;;;;;9.25;9.25;;;;;11.41;77.25;100703.25;4972317;27;45253;-62
2022/04/05 08:43:30;;;;;;;;;8.50;8.50;;;;;11.45;75.41;100707.44;4974426;28;45271;-58
2022/04/05 08:46:01;;;;;;;;;14.25;12.75;;;;;11.41;77.62;100704.09;4976784;28;45287;-57
2022/04/05 08:48:28;;;;;;;;;10.25;9.25;;;;;11.45;76.79;100705.63;4991779;28;45415;-54
2022/04/05 08:50:56;;;;;;;;;32.75;31.25;;;;;11.44;76.81;100703.06;4976750;28;45275;-55
2022/04/05 08:53:23;;;;;;;;;14.00;14.00;;;;;11.42;77.51;100707.63;4976812;28;45282;-55
2022/04/05 08:55:48;;;;;;;;;21.75;18.75;;;;;11.46;76.58;100709.19;5020158;28;46407;-57
2022/04/05 08:58:14;;;;;;;;;60.50;46.50;;;;;11.49;76.85;100711.66;5079648;27;45418;-55
2022/04/05 09:00:41;;;;;;;;;14.50;11.00;;;;;11.47;76.92;100706.41;5078475;27;45377;-54
2022/04/05 09:03:07;;;;;;;;;22.25;19.50;;;;;11.51;76.32;100697.28;5079111;27;45346;-56
2022/04/05 09:05:34;;;;;;;;;22.75;16.00;;;;;11.51;76.93;100697.28;5078853;27;46036;-57
2022/04/05 09:08:23;;;;;;;;;17.50;11.75;;;;;11.47;76.22;100694.91;5079425;27;45278;-57
2022/04/05 09:10:52;;;;;;;;;13.75;12.00;;;;;11.60;76.20;100703.03;5079248;27;45243;-56
2022/04/05 09:13:27;;;;;;;;;11.25;11.25;;;;;11.53;76.27;100686.53;5061307;28;45474;-55
2022/04/05 09:15:58;;;;;;;;;12.50;8.00;;;;;11.47;75.79;100676.25;5078740;27;46144;-52
2022/04/05 09:18:47;;;;;;;;;10.00;7.50;;;;;11.55;75.92;100687.31;5077290;28;45343;-53
2022/04/05 09:21:16;;;;;;;;;12.50;12.00;;;;;11.58;75.64;100689.78;5068694;27;45495;-54
2022/04/05 09:23:43;;;;;;;;;12.00;11.50;;;;;11.59;75.82;100688.88;5079331;27;45622;-53
2022/04/05 09:26:14;;;;;;;;;15.25;12.00;;;;;11.65;75.98;100699.16;5078954;27;45682;-55
2022/04/05 09:28:46;;;;;;;;;8.00;8.00;;;;;11.68;75.99;100700.78;5078408;27;45465;-54
2022/04/05 09:31:14;;;;;;;;;12.50;10.75;;;;;11.73;75.63;100701.38;5077651;28;45496;-57
2022/04/05 09:34:00;;;;;;;;;13.75;9.25;;;;;11.75;75.65;100703.00;5079169;27;45558;-55
2022/04/05 09:36:33;;;;;;;;;11.25;9.25;;;;;11.77;74.79;100705.56;5079685;27;46467;-54
2022/04/05 09:39:29;;;;;;;;;8.25;8.25;;;;;11.78;75.95;100705.47;5078066;27;45517;-57
2022/04/05 09:42:03;;;;;;;;;15.25;8.75;;;;;11.73;75.85;100688.06;5078280;27;45383;-57
2022/04/05 09:44:34;;;;;;;;;14.00;9.25;;;;;11.88;75.50;100702.31;5078798;27;45397;-54
2022/04/05 09:47:07;;;;;;;;;11.75;11.75;;;;;11.98;75.48;100714.09;5078172;27;45354;-55
2022/04/05 09:49:38;;;;;;;;;10.25;8.75;;;;;11.95;74.88;100701.81;5078566;27;45221;-52
2022/04/05 09:52:25;;;;;;;;;13.50;11.75;;;;;12.03;75.34;100698.72;5078854;27;45314;-52
2022/04/05 09:54:51;;;;;;;;;12.50;10.25;;;;;12.06;75.14;100696.72;5073449;28;45744;-55
2022/04/05 09:57:29;;;;;;;;;13.25;11.50;;;;;12.19;74.96;100699.50;4973997;28;46193;-53
2022/04/05 10:00:13;;;;;;;;;9.50;9.00;;;;;12.24;74.59;100708.09;4973708;28;45431;-54
2022/04/05 10:03:03;;;;;;;;;11.75;10.50;;;;;12.21;74.45;100702.91;4973960;28;45391;-51
2022/04/05 10:05:33;;;;;;;;;10.50;10.50;;;;;12.14;74.39;100685.59;4973874;27;45265;-55
2022/04/05 10:08:00;;;;;;;;;8.00;8.00;;;;;12.17;74.56;100690.72;4973603;28;45333;-53
2022/04/05 10:10:25;;;;;;;;;13.50;10.25;;;;;12.21;74.12;100696.72;4974701;28;45428;-55
2022/04/05 10:12:51;;;;;;;;;8.00;8.00;;;;;12.18;74.30;100699.59;4988250;28;45342;-56
2022/04/05 10:15:18;;;;;;;;;7.75;7.75;;;;;12.21;74.42;100702.06;4974523;28;45371;-55
2022/04/05 10:17:45;;;;;;;;;10.75;10.00;;;;;12.21;74.70;100704.72;4973788;28;46166;-51
2022/04/05 10:20:13;;;;;;;;;7.25;6.25;;;;;12.22;74.51;100709.09;4975038;28;45384;-53
2022/04/05 10:22:40;;;;;;;;;10.25;10.25;;;;;12.12;74.37;100703.50;4974702;28;45425;-53
2022/04/05 10:25:07;;;;;;;;;13.75;10.50;;;;;12.21;74.35;100713.56;4990553;28;45345;-55
2022/04/05 10:27:33;;;;;;;;;14.50;10.25;;;;;12.22;74.54;100712.63;4973968;28;46430;-56
2022/04/05 10:30:07;;;;;;;;;8.50;8.50;;;;;12.21;73.97;100712.72;4975043;28;45365;-57
2022/04/05 10:32:58;;;;;;;;;13.25;10.75;;;;;12.20;74.93;100701.19;4976452;28;45417;-55
2022/04/05 10:35:24;;;;;;;;;14.00;11.75;;;;;12.25;74.78;100707.13;4974383;28;45292;-55
2022/04/05 10:37:53;;;;;;;;;12.50;11.00;;;;;12.27;74.23;100701.69;4975648;28;45474;-54
2022/04/05 10:40:20;;;;;;;;;10.00;10.00;;;;;12.26;74.63;100698.19;4975237;28;45438;-56
2022/04/05 10:42:46;;;;;;;;;8.25;8.25;;;;;12.35;73.97;100708.25;4975934;28;45588;-53
2022/04/05 10:45:12;;;;;;;;;11.25;11.25;;;;;12.33;74.00;100714.66;4974736;27;45370;-53
2022/04/05 10:48:15;;;;;;;;;11.75;7.75;;;;;12.36;73.77;100707.31;4976359;28;45459;-54
2022/04/05 10:50:43;;;;;;;;;13.67;9.67;;;;;12.33;73.93;100695.97;4973938;28;45273;-55
2022/04/05 10:53:21;;;;;;;;;11.67;11.67;;;;;12.29;73.94;100695.31;4973977;28;45358;-54
2022/04/05 10:56:09;;;;;;;;;12.50;11.00;;;;;12.34;74.37;100697.69;5017601;28;45551;-53
2022/04/05 10:58:38;;;;;;;;;15.00;12.00;;;;;12.38;73.89;100696.56;5077440;27;46417;-52
2022/04/05 11:01:44;;;;;;;;;10.00;9.50;;;;;12.37;74.94;100698.38;5093276;27;45270;-54
2022/04/05 11:04:17;;;;;;;;;11.25;9.00;;;;;12.45;74.41;100694.34;5076490;27;45413;-53
2022/04/05 11:07:06;;;;;;;;;14.25;10.75;;;;;12.45;74.35;100689.03;5076930;27;45547;-54
2022/04/05 11:09:35;;;;;;;;;9.00;7.50;;;;;12.48;73.54;100687.00;5077121;27;45459;-55
2022/04/05 11:12:04;;;;;;;;;10.50;7.50;;;;;12.53;73.63;100697.41;5077149;27;45318;-53
2022/04/05 11:14:39;;;;;;;;;8.00;8.00;;;;;12.55;72.96;100684.84;5077506;27;45551;-55
2022/04/05 11:17:07;;;;;;;;;8.25;8.25;;;;;12.56;73.16;100691.88;5077196;28;45436;-52
2022/04/05 11:19:44;;;;;;;;;7.75;6.00;;;;;12.51;73.47;100678.84;5077283;27;46900;-56